Time,TemperatureF,DewpointF,PressureIn,WindDirection,WindDirectionDegrees,WindSpeedMPH,WindSpeedGustMPH,Humidity,HourlyPrecipIn,Conditions,Clouds,dailyrainin,SoftwareType,DateUTC
2013-08-11 00:04:00,83.6,69.0,30.00,NNE,29,2.0,5.0,62,0.00,,,0.00,weatherlink.com 1.10,2013-08-11 05:04:00,
2013-08-11 00:34:00,82.7,69.0,29.99,ESE,119,1.0,3.0,64,0.00,,,0.00,weatherlink.com 1.10,2013-08-11 05:34:00,
2013-08-11 01:04:00,82.1,69.0,29.99,East,97,2.0,3.0,65,0.00,,,0.00,weatherlink.com 1.10,2013-08-11 06:04:00,
2013-08-11 01:19:00,82.1,70.0,29.99,East,94,1.0,2.0,66,0.00,,,0.00,weatherlink.com 1.10,2013-08-11 06:19:00,
2013-08-11 01:34:00,82.0,70.0,29.99,East,88,1.0,5.0,67,0.00,,,0.00,weatherlink.com 1.10,2013-08-11 06:34:00,
2013-08-11 01:49:00,82.1,71.0,29.99,ESE,109,3.0,6.0,68,0.00,,,0.00,weatherlink.com 1.10,2013-08-11 06:49:00,
2013-08-11 02:04:00,81.8,71.0,29.99,East,93,2.0,5.0,69,0.00,,,0.00,weatherlink.com 1.10,2013-08-11 07:04:00,
2013-08-11 02:19:00,81.3,71.0,29.99,East,82,1.0,3.0,70,0.00,,,0.00,weatherlink.com 1.10,2013-08-11 07:19:00,
2013-08-11 02:34:00,80.8,71.0,29.99,SE,127,2.0,4.0,72,0.00,,,0.00,weatherlink.com 1.10,2013-08-11 07:34:00,
2013-08-11 02:49:00,80.6,71.0,29.99,SSE,165,1.0,3.0,72,0.00,,,0.00,weatherlink.com 1.10,2013-08-11 07:49:00,
2013-08-11 03:04:00,80.3,71.0,29.99,South,170,1.0,4.0,74,0.00,,,0.00,weatherlink.com 1.10,2013-08-11 08:04:00,
2013-08-11 03:19:00,79.9,71.0,29.99,South,169,0.0,4.0,75,0.00,,,0.00,weatherlink.com 1.10,2013-08-11 08:19:00,
2013-08-11 03:34:00,79.5,71.0,29.99,South,169,0.0,1.0,76,0.00,,,0.00,weatherlink.com 1.10,2013-08-11 08:34:00,
2013-08-11 03:49:00,78.9,71.0,29.99,South,169,0.0,1.0,77,0.00,,,0.00,weatherlink.com 1.10,2013-08-11 08:49:00,
2013-08-11 04:04:00,78.4,71.0,29.99,South,169,0.0,0.0,78,0.00,,,0.00,weatherlink.com 1.10,2013-08-11 09:04:00,
2013-08-11 04:19:00,78.0,71.0,29.99,South,169,0.0,1.0,79,0.00,,,0.00,weatherlink.com 1.10,2013-08-11 09:19:00,
2013-08-11 04:34:00,77.6,71.0,29.99,South,169,0.0,0.0,80,0.00,,,0.00,weatherlink.com 1.10,2013-08-11 09:34:00,
2013-08-11 04:49:00,77.1,71.0,29.99,South,169,0.0,0.0,81,0.00,,,0.00,weatherlink.com 1.10,2013-08-11 09:49:00,
2013-08-11 05:19:00,76.6,71.0,29.99,South,169,1.0,2.0,82,0.00,,,0.00,weatherlink.com 1.10,2013-08-11 10:19:00,
2013-08-11 05:34:00,76.8,71.0,29.99,South,169,0.0,3.0,81,0.00,,,0.00,weatherlink.com 1.10,2013-08-11 10:34:00,
2013-08-11 05:49:00,77.0,70.0,29.99,South,169,0.0,2.0,80,0.00,,,0.00,weatherlink.com 1.10,2013-08-11 10:49:00,
2013-08-11 06:04:00,77.1,71.0,29.99,SSE,150,0.0,2.0,80,0.00,,,0.00,weatherlink.com 1.10,2013-08-11 11:04:00,
2013-08-11 06:19:00,77.1,71.0,30.00,SSE,166,0.0,3.0,80,0.00,,,0.00,weatherlink.com 1.10,2013-08-11 11:19:00,
2013-08-11 06:49:00,77.0,71.0,30.01,South,178,2.0,4.0,81,0.00,,,0.00,weatherlink.com 1.10,2013-08-11 11:49:00,
2013-08-11 07:04:00,76.9,71.0,30.02,SSE,163,1.0,4.0,82,0.00,,,0.00,weatherlink.com 1.10,2013-08-11 12:04:00,
2013-08-11 07:19:00,76.9,71.0,30.02,SSE,168,1.0,5.0,82,0.00,,,0.00,weatherlink.com 1.10,2013-08-11 12:19:00,
2013-08-11 07:34:00,77.1,71.0,30.02,SSE,162,0.0,5.0,82,0.00,,,0.00,weatherlink.com 1.10,2013-08-11 12:34:00,
2013-08-11 07:49:00,77.4,72.0,30.03,SSE,168,0.0,3.0,82,0.00,,,0.00,weatherlink.com 1.10,2013-08-11 12:49:00,
2013-08-11 08:05:00,78.1,72.0,30.02,SSE,163,1.0,4.0,81,0.00,,,0.00,weatherlink.com 1.10,2013-08-11 13:05:00,
2013-08-11 08:20:00,79.0,72.0,30.03,South,171,1.0,5.0,79,0.00,,,0.00,weatherlink.com 1.10,2013-08-11 13:20:00,
2013-08-11 08:50:00,82.5,73.0,30.03,South,173,0.0,6.0,73,0.00,,,0.00,weatherlink.com 1.10,2013-08-11 13:50:00,
2013-08-11 09:05:00,84.2,74.0,30.03,South,170,1.0,5.0,71,0.00,,,0.00,weatherlink.com 1.10,2013-08-11 14:05:00,
2013-08-11 09:20:00,85.3,74.0,30.03,SSE,165,0.0,4.0,69,0.00,,,0.00,weatherlink.com 1.10,2013-08-11 14:20:00,
2013-08-11 09:35:00,86.2,75.0,30.03,South,173,0.0,6.0,69,0.00,,,0.00,weatherlink.com 1.10,2013-08-11 14:35:00,
2013-08-11 09:50:00,86.8,75.0,30.03,South,175,2.0,6.0,67,0.00,,,0.00,weatherlink.com 1.10,2013-08-11 14:50:00,
2013-08-11 10:05:00,86.2,75.0,30.04,South,187,4.0,4.0,69,0.00,,,0.00,weatherlink.com 1.10,2013-08-11 15:05:00,
2013-08-11 10:20:00,86.8,74.0,30.04,SSE,164,1.0,7.0,65,0.00,,,0.00,weatherlink.com 1.10,2013-08-11 15:20:00,
2013-08-11 10:35:00,87.5,75.0,30.04,South,171,0.0,4.0,66,0.00,,,0.00,weatherlink.com 1.10,2013-08-11 15:35:00,
2013-08-11 10:50:00,88.4,74.0,30.04,South,181,0.0,3.0,63,0.00,,,0.00,weatherlink.com 1.10,2013-08-11 15:50:00,
2013-08-11 11:05:00,89.2,74.0,30.04,SSE,156,0.0,5.0,62,0.00,,,0.00,weatherlink.com 1.10,2013-08-11 16:05:00,
2013-08-11 11:20:00,89.2,73.0,30.04,SSE,161,2.0,5.0,60,0.00,,,0.00,weatherlink.com 1.10,2013-08-11 16:20:00,
2013-08-11 11:35:00,91.5,75.0,30.04,SSE,167,2.0,5.0,59,0.00,,,0.00,weatherlink.com 1.10,2013-08-11 16:35:00,
2013-08-11 12:05:00,92.2,73.0,30.03,SSE,166,1.0,5.0,54,0.00,,,0.00,weatherlink.com 1.10,2013-08-11 17:05:00,
2013-08-11 12:20:00,93.4,74.0,30.02,SSE,164,2.0,8.0,53,0.00,,,0.00,weatherlink.com 1.10,2013-08-11 17:20:00,
2013-08-11 12:35:00,93.7,73.0,30.02,SE,138,0.0,4.0,52,0.00,,,0.00,weatherlink.com 1.10,2013-08-11 17:35:00,
2013-08-11 12:50:00,94.5,74.0,30.02,South,187,2.0,5.0,51,0.00,,,0.00,weatherlink.com 1.10,2013-08-11 17:50:00,
2013-08-11 13:20:00,95.9,73.0,30.01,SSE,156,4.0,6.0,48,0.00,,,0.00,weatherlink.com 1.10,2013-08-11 18:20:00,
2013-08-11 13:35:00,95.7,74.0,30.00,SE,139,3.0,6.0,49,0.00,,,0.00,weatherlink.com 1.10,2013-08-11 18:35:00,
2013-08-11 13:50:00,97.2,76.0,30.00,South,174,1.0,5.0,50,0.00,,,0.00,weatherlink.com 1.10,2013-08-11 18:50:00,
2013-08-11 14:05:00,97.6,74.0,29.99,SSE,155,5.0,6.0,46,0.00,,,0.00,weatherlink.com 1.10,2013-08-11 19:05:00,
2013-08-11 14:35:00,98.4,72.0,29.98,SSE,157,0.0,4.0,42,0.00,,,0.00,weatherlink.com 1.10,2013-08-11 19:35:00,
2013-08-11 14:50:00,98.8,73.0,29.97,South,171,3.0,5.0,43,0.00,,,0.00,weatherlink.com 1.10,2013-08-11 19:50:00,
2013-08-11 15:06:00,99.6,73.0,29.96,South,172,0.0,4.0,42,0.00,,,0.00,weatherlink.com 1.10,2013-08-11 20:06:00,
2013-08-11 15:21:00,99.1,72.0,29.96,SSE,167,2.0,4.0,42,0.00,,,0.00,weatherlink.com 1.10,2013-08-11 20:21:00,
2013-08-11 15:36:00,99.8,71.0,29.95,South,179,1.0,4.0,39,0.00,,,0.00,weatherlink.com 1.10,2013-08-11 20:36:00,
2013-08-11 15:51:00,100.1,71.0,29.94,SSE,157,0.0,3.0,39,0.00,,,0.00,weatherlink.com 1.10,2013-08-11 20:51:00,
2013-08-11 16:06:00,100.5,68.0,29.94,SSE,163,2.0,4.0,35,0.00,,,0.00,weatherlink.com 1.10,2013-08-11 21:06:00,
2013-08-11 16:21:00,101.1,69.0,29.93,SE,144,0.0,3.0,35,0.00,,,0.00,weatherlink.com 1.10,2013-08-11 21:21:00,
2013-08-11 16:36:00,101.0,69.0,29.93,SSE,167,0.0,4.0,35,0.00,,,0.00,weatherlink.com 1.10,2013-08-11 21:36:00,
2013-08-11 17:21:00,102.1,64.0,29.92,West,278,0.0,4.0,29,0.00,,,0.00,weatherlink.com 1.10,2013-08-11 22:21:00,
2013-08-11 17:36:00,102.3,65.0,29.91,WNW,288,2.0,3.0,30,0.00,,,0.00,weatherlink.com 1.10,2013-08-11 22:36:00,
2013-08-11 17:51:00,101.6,69.0,29.91,NW,315,1.0,8.0,35,0.00,,,0.00,weatherlink.com 1.10,2013-08-11 22:51:00,
2013-08-11 18:06:00,101.2,69.0,29.91,NNW,339,4.0,6.0,35,0.00,,,0.00,weatherlink.com 1.10,2013-08-11 23:06:00,
2013-08-11 18:21:00,100.2,69.0,29.92,NNW,348,2.0,7.0,36,0.00,,,0.00,weatherlink.com 1.10,2013-08-11 23:21:00,
2013-08-11 18:36:00,98.8,68.0,29.92,NNE,26,4.0,9.0,37,0.00,,,0.00,weatherlink.com 1.10,2013-08-11 23:36:00,
2013-08-11 18:51:00,97.0,70.0,29.93,East,82,2.0,9.0,41,0.00,,,0.00,weatherlink.com 1.10,2013-08-11 23:51:00,
2013-08-11 19:06:00,95.3,69.0,29.93,ENE,72,8.0,24.0,43,0.00,,,0.00,weatherlink.com 1.10,2013-08-12 00:06:00,
2013-08-11 19:36:00,88.5,70.0,29.94,ESE,113,8.0,12.0,55,0.00,,,0.00,weatherlink.com 1.10,2013-08-12 00:36:00,
2013-08-11 19:51:00,88.1,67.0,29.93,ESE,122,3.0,7.0,50,0.00,,,0.00,weatherlink.com 1.10,2013-08-12 00:51:00,
2013-08-11 20:21:00,88.1,67.0,29.94,ESE,121,2.0,6.0,49,0.00,,,0.00,weatherlink.com 1.10,2013-08-12 01:21:00,
2013-08-11 20:36:00,88.2,67.0,29.95,SE,139,3.0,7.0,50,0.00,,,0.00,weatherlink.com 1.10,2013-08-12 01:36:00,
2013-08-11 20:51:00,88.6,68.0,29.95,South,174,1.0,11.0,51,0.00,,,0.00,weatherlink.com 1.10,2013-08-12 01:51:00,
2013-08-11 21:06:00,88.1,71.0,29.95,SSE,166,3.0,6.0,57,0.00,,,0.00,weatherlink.com 1.10,2013-08-12 02:06:00,
2013-08-11 21:21:00,86.6,71.0,29.95,South,169,1.0,7.0,59,0.00,,,0.00,weatherlink.com 1.10,2013-08-12 02:21:00,
2013-08-11 22:06:00,85.8,71.0,29.96,South,176,1.0,3.0,62,0.00,,,0.00,weatherlink.com 1.10,2013-08-12 03:06:00,
2013-08-11 22:36:00,85.5,72.0,29.97,South,176,0.0,0.0,64,0.00,,,0.00,weatherlink.com 1.10,2013-08-12 03:36:00,
2013-08-11 22:51:00,84.8,71.0,29.97,South,176,0.0,1.0,63,0.00,,,0.00,weatherlink.com 1.10,2013-08-12 03:51:00,
2013-08-11 23:06:00,84.2,70.0,29.98,South,176,0.0,0.0,62,0.00,,,0.00,weatherlink.com 1.10,2013-08-12 04:06:00,
2013-08-11 23:21:00,83.8,70.0,29.99,South,177,0.0,0.0,63,0.00,,,0.00,weatherlink.com 1.10,2013-08-12 04:21:00,
2013-08-11 23:36:00,83.8,70.0,30.00,SSE,165,1.0,6.0,63,0.00,,,0.00,weatherlink.com 1.10,2013-08-12 04:36:00,
2013-08-11 23:51:00,84.2,70.0,30.00,SSE,165,1.0,7.0,62,0.00,,,0.00,weatherlink.com 1.10,2013-08-12 04:51:00,